Houstonville, North Carolina
Current Conditions -  °F | °C
As of 12:35 AM on Saturday 20 Dec 2014 (Local Time) from KSVH Reporting Station
Clear Clear  
Wind Chill: 41°   Ceiling: Unl
Heat Index: 41°   Visibility: 10mi
Dew Point: 28°   Wind: 3mph
Humidity: 59%   Direction: 60°ENE
Pressure: 30.18"   Gusts: NA
Location:  35.9632°N, 80.7532°W
Report Text: KSVH 200535Z AUTO 06003KT 10SM CLR 05/M02 A3018 RMK AO2 T00511024
Loading
Personal Weather Stations






























Interactive Weather Map New forecast layout! Learn more

10-Day Weather Forecast

Advertisements
Track Severe Weather on mobile